sensor_id;sensor_type;location;lat;lon;timestamp;P1;durP1;ratioP1;P2;durP2;ratioP2
6832;SDS011;3454;42.654;23.378;2023-04-29T00:01:18;4.97;;;3.27;;
6832;SDS011;3454;42.654;23.378;2023-04-29T00:03:44;4.37;;;2.97;;
6832;SDS011;3454;42.654;23.378;2023-04-29T00:06:09;4.47;;;2.80;;
6832;SDS011;3454;42.654;23.378;2023-04-29T00:08:35;7.97;;;3.67;;
6832;SDS011;3454;42.654;23.378;2023-04-29T00:11:01;5.00;;;3.27;;
6832;SDS011;3454;42.654;23.378;2023-04-29T00:13:27;5.17;;;2.77;;
6832;SDS011;3454;42.654;23.378;2023-04-29T00:15:52;3.37;;;2.97;;
6832;SDS011;3454;42.654;23.378;2023-04-29T00:18:17;8.13;;;3.30;;
6832;SDS011;3454;42.654;23.378;2023-04-29T00:20:43;4.03;;;3.07;;
6832;SDS011;3454;42.654;23.378;2023-04-29T00:23:08;4.57;;;3.00;;
6832;SDS011;3454;42.654;23.378;2023-04-29T00:25:34;6.00;;;2.90;;
6832;SDS011;3454;42.654;23.378;2023-04-29T00:28:00;3.97;;;2.83;;
6832;SDS011;3454;42.654;23.378;2023-04-29T00:30:26;10.43;;;3.00;;
6832;SDS011;3454;42.654;23.378;2023-04-29T00:32:52;5.83;;;2.77;;
6832;SDS011;3454;42.654;23.378;2023-04-29T00:35:19;4.33;;;2.90;;
6832;SDS011;3454;42.654;23.378;2023-04-29T00:37:44;3.97;;;2.60;;
6832;SDS011;3454;42.654;23.378;2023-04-29T00:40:10;6.83;;;2.77;;
6832;SDS011;3454;42.654;23.378;2023-04-29T00:42:37;3.67;;;2.70;;
6832;SDS011;3454;42.654;23.378;2023-04-29T00:45:03;6.30;;;3.20;;
6832;SDS011;3454;42.654;23.378;2023-04-29T00:47:28;5.37;;;2.60;;
6832;SDS011;3454;42.654;23.378;2023-04-29T00:49:54;5.67;;;2.70;;
6832;SDS011;3454;42.654;23.378;2023-04-29T00:52:20;5.27;;;2.90;;
6832;SDS011;3454;42.654;23.378;2023-04-29T00:54:46;4.37;;;3.00;;
6832;SDS011;3454;42.654;23.378;2023-04-29T00:57:13;5.67;;;2.70;;
6832;SDS011;3454;42.654;23.378;2023-04-29T00:59:39;6.23;;;2.83;;
6832;SDS011;3454;42.654;23.378;2023-04-29T01:02:05;3.80;;;2.60;;
6832;SDS011;3454;42.654;23.378;2023-04-29T01:04:30;5.77;;;2.80;;
6832;SDS011;3454;42.654;23.378;2023-04-29T01:09:52;9.33;;;4.07;;
6832;SDS011;3454;42.654;23.378;2023-04-29T01:15:25;8.13;;;3.77;;
6832;SDS011;3454;42.654;23.378;2023-04-29T01:17:55;8.73;;;3.60;;
6832;SDS011;3454;42.654;23.378;2023-04-29T01:20:24;4.73;;;3.70;;
6832;SDS011;3454;42.654;23.378;2023-04-29T01:22:50;4.53;;;3.50;;
6832;SDS011;3454;42.654;23.378;2023-04-29T01:25:16;9.40;;;4.63;;
6832;SDS011;3454;42.654;23.378;2023-04-29T01:33:47;7.53;;;4.10;;
6832;SDS011;3454;42.654;23.378;2023-04-29T01:44:44;4.80;;;2.90;;
6832;SDS011;3454;42.654;23.378;2023-04-29T01:47:13;5.13;;;2.80;;
6832;SDS011;3454;42.654;23.378;2023-04-29T01:49:39;3.33;;;2.47;;
6832;SDS011;3454;42.654;23.378;2023-04-29T01:52:05;4.13;;;2.53;;
6832;SDS011;3454;42.654;23.378;2023-04-29T01:54:38;3.63;;;2.30;;
6832;SDS011;3454;42.654;23.378;2023-04-29T01:57:03;5.93;;;3.07;;
6832;SDS011;3454;42.654;23.378;2023-04-29T01:59:29;4.13;;;2.60;;
6832;SDS011;3454;42.654;23.378;2023-04-29T02:01:55;5.80;;;2.90;;
6832;SDS011;3454;42.654;23.378;2023-04-29T02:04:22;4.33;;;2.80;;
6832;SDS011;3454;42.654;23.378;2023-04-29T02:06:49;5.37;;;2.63;;
6832;SDS011;3454;42.654;23.378;2023-04-29T02:09:14;3.87;;;2.53;;
6832;SDS011;3454;42.654;23.378;2023-04-29T02:11:40;7.30;;;3.13;;
6832;SDS011;3454;42.654;23.378;2023-04-29T02:14:05;5.33;;;2.60;;
6832;SDS011;3454;42.654;23.378;2023-04-29T02:16:31;3.70;;;2.50;;
6832;SDS011;3454;42.654;23.378;2023-04-29T02:19:14;7.67;;;2.47;;
6832;SDS011;3454;42.654;23.378;2023-04-29T02:21:40;6.40;;;2.77;;
6832;SDS011;3454;42.654;23.378;2023-04-29T02:24:06;4.07;;;2.50;;
6832;SDS011;3454;42.654;23.378;2023-04-29T02:26:31;5.40;;;3.20;;
6832;SDS011;3454;42.654;23.378;2023-04-29T02:28:58;4.47;;;2.40;;
6832;SDS011;3454;42.654;23.378;2023-04-29T02:31:24;4.70;;;2.87;;
6832;SDS011;3454;42.654;23.378;2023-04-29T02:33:49;4.97;;;2.57;;
6832;SDS011;3454;42.654;23.378;2023-04-29T02:36:15;4.63;;;3.17;;
6832;SDS011;3454;42.654;23.378;2023-04-29T02:38:41;6.23;;;3.30;;
6832;SDS011;3454;42.654;23.378;2023-04-29T02:41:07;4.50;;;3.07;;
6832;SDS011;3454;42.654;23.378;2023-04-29T02:43:32;3.50;;;2.60;;
6832;SDS011;3454;42.654;23.378;2023-04-29T02:45:58;10.43;;;3.23;;
6832;SDS011;3454;42.654;23.378;2023-04-29T02:48:24;5.70;;;2.53;;
6832;SDS011;3454;42.654;23.378;2023-04-29T02:50:49;6.67;;;3.07;;
6832;SDS011;3454;42.654;23.378;2023-04-29T02:53:15;5.20;;;2.77;;
6832;SDS011;3454;42.654;23.378;2023-04-29T02:55:41;3.50;;;2.90;;
6832;SDS011;3454;42.654;23.378;2023-04-29T02:58:07;4.80;;;3.20;;
6832;SDS011;3454;42.654;23.378;2023-04-29T03:00:32;8.87;;;2.80;;
6832;SDS011;3454;42.654;23.378;2023-04-29T03:02:58;5.70;;;3.80;;
6832;SDS011;3454;42.654;23.378;2023-04-29T03:05:23;6.53;;;3.43;;
6832;SDS011;3454;42.654;23.378;2023-04-29T03:07:48;8.83;;;3.87;;
6832;SDS011;3454;42.654;23.378;2023-04-29T03:10:14;7.57;;;3.87;;
6832;SDS011;3454;42.654;23.378;2023-04-29T03:12:39;8.37;;;3.70;;
6832;SDS011;3454;42.654;23.378;2023-04-29T03:15:05;6.73;;;3.87;;
6832;SDS011;3454;42.654;23.378;2023-04-29T03:17:31;8.57;;;4.70;;
6832;SDS011;3454;42.654;23.378;2023-04-29T03:19:57;7.17;;;4.50;;
6832;SDS011;3454;42.654;23.378;2023-04-29T03:22:23;8.77;;;4.47;;
6832;SDS011;3454;42.654;23.378;2023-04-29T03:24:48;7.37;;;4.57;;
6832;SDS011;3454;42.654;23.378;2023-04-29T03:27:14;8.23;;;4.70;;
6832;SDS011;3454;42.654;23.378;2023-04-29T03:29:39;12.20;;;4.43;;
6832;SDS011;3454;42.654;23.378;2023-04-29T03:32:04;7.53;;;4.80;;
6832;SDS011;3454;42.654;23.378;2023-04-29T03:34:30;9.93;;;5.13;;
6832;SDS011;3454;42.654;23.378;2023-04-29T03:36:56;7.20;;;4.43;;
6832;SDS011;3454;42.654;23.378;2023-04-29T03:39:21;8.23;;;4.67;;
6832;SDS011;3454;42.654;23.378;2023-04-29T03:41:47;8.67;;;4.60;;
6832;SDS011;3454;42.654;23.378;2023-04-29T03:44:12;7.57;;;5.27;;
6832;SDS011;3454;42.654;23.378;2023-04-29T03:46:38;9.03;;;5.07;;
6832;SDS011;3454;42.654;23.378;2023-04-29T03:49:03;9.87;;;4.97;;
6832;SDS011;3454;42.654;23.378;2023-04-29T03:51:29;8.03;;;4.40;;
6832;SDS011;3454;42.654;23.378;2023-04-29T03:53:54;9.77;;;4.63;;
6832;SDS011;3454;42.654;23.378;2023-04-29T03:56:21;10.33;;;5.33;;
6832;SDS011;3454;42.654;23.378;2023-04-29T03:58:47;8.77;;;4.60;;
6832;SDS011;3454;42.654;23.378;2023-04-29T04:01:13;13.67;;;5.20;;
6832;SDS011;3454;42.654;23.378;2023-04-29T04:03:39;13.70;;;5.13;;
6832;SDS011;3454;42.654;23.378;2023-04-29T04:06:05;9.37;;;4.40;;
6832;SDS011;3454;42.654;23.378;2023-04-29T04:08:30;7.33;;;3.60;;
6832;SDS011;3454;42.654;23.378;2023-04-29T04:10:56;4.87;;;3.27;;
6832;SDS011;3454;42.654;23.378;2023-04-29T04:13:27;6.30;;;2.70;;
6832;SDS011;3454;42.654;23.378;2023-04-29T04:15:52;4.07;;;2.63;;
6832;SDS011;3454;42.654;23.378;2023-04-29T04:18:18;4.37;;;3.10;;
6832;SDS011;3454;42.654;23.378;2023-04-29T04:20:43;4.57;;;3.03;;
6832;SDS011;3454;42.654;23.378;2023-04-29T04:23:09;7.53;;;4.73;;
6832;SDS011;3454;42.654;23.378;2023-04-29T04:25:34;6.53;;;2.87;;
6832;SDS011;3454;42.654;23.378;2023-04-29T04:28:00;4.43;;;2.93;;
6832;SDS011;3454;42.654;23.378;2023-04-29T04:30:26;3.77;;;2.60;;
6832;SDS011;3454;42.654;23.378;2023-04-29T04:32:51;4.63;;;2.97;;
6832;SDS011;3454;42.654;23.378;2023-04-29T04:35:16;6.07;;;2.63;;
6832;SDS011;3454;42.654;23.378;2023-04-29T04:37:42;3.37;;;2.83;;
6832;SDS011;3454;42.654;23.378;2023-04-29T04:40:07;4.70;;;3.13;;
6832;SDS011;3454;42.654;23.378;2023-04-29T04:42:35;5.83;;;2.70;;
6832;SDS011;3454;42.654;23.378;2023-04-29T04:45:00;4.37;;;2.70;;
6832;SDS011;3454;42.654;23.378;2023-04-29T04:47:26;4.93;;;2.80;;
6832;SDS011;3454;42.654;23.378;2023-04-29T04:49:52;5.43;;;3.17;;
6832;SDS011;3454;42.654;23.378;2023-04-29T04:52:20;6.63;;;3.10;;
6832;SDS011;3454;42.654;23.378;2023-04-29T04:54:46;5.80;;;3.40;;
6832;SDS011;3454;42.654;23.378;2023-04-29T04:57:12;4.50;;;3.00;;
6832;SDS011;3454;42.654;23.378;2023-04-29T04:59:37;4.60;;;3.10;;
6832;SDS011;3454;42.654;23.378;2023-04-29T05:02:03;9.83;;;3.27;;
6832;SDS011;3454;42.654;23.378;2023-04-29T05:04:29;4.23;;;2.93;;
6832;SDS011;3454;42.654;23.378;2023-04-29T05:06:54;4.67;;;3.17;;
6832;SDS011;3454;42.654;23.378;2023-04-29T05:09:19;5.07;;;3.30;;
6832;SDS011;3454;42.654;23.378;2023-04-29T05:11:45;6.67;;;3.57;;
6832;SDS011;3454;42.654;23.378;2023-04-29T05:14:10;4.17;;;3.43;;
6832;SDS011;3454;42.654;23.378;2023-04-29T05:16:36;5.73;;;3.13;;
6832;SDS011;3454;42.654;23.378;2023-04-29T05:19:02;7.17;;;3.43;;
6832;SDS011;3454;42.654;23.378;2023-04-29T05:21:27;5.40;;;3.10;;
6832;SDS011;3454;42.654;23.378;2023-04-29T05:23:52;7.43;;;3.50;;
6832;SDS011;3454;42.654;23.378;2023-04-29T05:26:18;5.83;;;3.30;;
6832;SDS011;3454;42.654;23.378;2023-04-29T05:28:43;3.37;;;3.07;;
6832;SDS011;3454;42.654;23.378;2023-04-29T05:31:09;5.57;;;3.67;;
6832;SDS011;3454;42.654;23.378;2023-04-29T05:33:35;5.37;;;3.33;;
6832;SDS011;3454;42.654;23.378;2023-04-29T05:36:00;5.47;;;3.20;;
6832;SDS011;3454;42.654;23.378;2023-04-29T05:38:26;7.27;;;3.90;;
6832;SDS011;3454;42.654;23.378;2023-04-29T05:40:54;6.20;;;3.50;;
6832;SDS011;3454;42.654;23.378;2023-04-29T05:43:19;5.70;;;3.47;;
6832;SDS011;3454;42.654;23.378;2023-04-29T05:45:45;7.23;;;3.80;;
6832;SDS011;3454;42.654;23.378;2023-04-29T05:48:11;6.63;;;3.60;;
6832;SDS011;3454;42.654;23.378;2023-04-29T05:50:37;5.87;;;3.37;;
6832;SDS011;3454;42.654;23.378;2023-04-29T05:53:02;6.27;;;3.87;;
6832;SDS011;3454;42.654;23.378;2023-04-29T05:55:28;4.43;;;3.67;;
6832;SDS011;3454;42.654;23.378;2023-04-29T05:57:54;8.07;;;4.13;;
6832;SDS011;3454;42.654;23.378;2023-04-29T06:00:20;7.27;;;3.90;;
6832;SDS011;3454;42.654;23.378;2023-04-29T06:02:45;7.90;;;4.87;;
6832;SDS011;3454;42.654;23.378;2023-04-29T06:05:11;8.27;;;4.07;;
6832;SDS011;3454;42.654;23.378;2023-04-29T06:07:37;9.90;;;6.47;;
6832;SDS011;3454;42.654;23.378;2023-04-29T06:10:03;8.90;;;6.17;;
6832;SDS011;3454;42.654;23.378;2023-04-29T06:12:29;10.27;;;5.43;;
6832;SDS011;3454;42.654;23.378;2023-04-29T06:14:55;11.93;;;5.63;;
6832;SDS011;3454;42.654;23.378;2023-04-29T06:17:20;9.90;;;5.10;;
6832;SDS011;3454;42.654;23.378;2023-04-29T06:19:45;12.90;;;5.93;;
6832;SDS011;3454;42.654;23.378;2023-04-29T06:22:11;10.27;;;5.03;;
6832;SDS011;3454;42.654;23.378;2023-04-29T06:24:36;10.73;;;5.33;;
6832;SDS011;3454;42.654;23.378;2023-04-29T06:27:02;7.20;;;5.20;;
6832;SDS011;3454;42.654;23.378;2023-04-29T06:29:28;7.93;;;4.90;;
6832;SDS011;3454;42.654;23.378;2023-04-29T06:31:54;6.90;;;4.57;;
6832;SDS011;3454;42.654;23.378;2023-04-29T06:34:20;8.77;;;4.60;;
6832;SDS011;3454;42.654;23.378;2023-04-29T06:36:45;7.17;;;4.67;;
6832;SDS011;3454;42.654;23.378;2023-04-29T06:39:10;8.97;;;4.80;;
6832;SDS011;3454;42.654;23.378;2023-04-29T06:41:36;7.80;;;4.13;;
6832;SDS011;3454;42.654;23.378;2023-04-29T06:44:02;8.47;;;4.60;;
6832;SDS011;3454;42.654;23.378;2023-04-29T06:46:27;7.67;;;4.90;;
6832;SDS011;3454;42.654;23.378;2023-04-29T06:48:53;7.73;;;5.20;;
6832;SDS011;3454;42.654;23.378;2023-04-29T06:51:19;6.57;;;4.40;;
6832;SDS011;3454;42.654;23.378;2023-04-29T06:53:44;6.73;;;4.43;;
6832;SDS011;3454;42.654;23.378;2023-04-29T06:56:10;6.10;;;4.27;;
6832;SDS011;3454;42.654;23.378;2023-04-29T06:58:36;6.47;;;3.97;;
6832;SDS011;3454;42.654;23.378;2023-04-29T07:01:02;4.97;;;4.10;;
6832;SDS011;3454;42.654;23.378;2023-04-29T07:03:28;6.63;;;4.63;;
6832;SDS011;3454;42.654;23.378;2023-04-29T07:05:55;8.93;;;4.67;;
6832;SDS011;3454;42.654;23.378;2023-04-29T07:08:20;7.50;;;4.40;;
6832;SDS011;3454;42.654;23.378;2023-04-29T07:10:52;8.57;;;4.27;;
6832;SDS011;3454;42.654;23.378;2023-04-29T07:13:20;7.27;;;4.73;;
6832;SDS011;3454;42.654;23.378;2023-04-29T07:15:45;8.20;;;4.70;;
6832;SDS011;3454;42.654;23.378;2023-04-29T07:18:10;9.57;;;5.30;;
6832;SDS011;3454;42.654;23.378;2023-04-29T07:20:36;9.10;;;5.30;;
6832;SDS011;3454;42.654;23.378;2023-04-29T07:23:01;6.53;;;4.67;;
6832;SDS011;3454;42.654;23.378;2023-04-29T07:25:27;35.67;;;18.90;;
6832;SDS011;3454;42.654;23.378;2023-04-29T07:27:53;7.97;;;5.20;;
6832;SDS011;3454;42.654;23.378;2023-04-29T07:30:20;10.80;;;4.90;;
6832;SDS011;3454;42.654;23.378;2023-04-29T07:32:46;10.83;;;6.03;;
6832;SDS011;3454;42.654;23.378;2023-04-29T07:35:11;12.00;;;5.73;;
6832;SDS011;3454;42.654;23.378;2023-04-29T07:37:37;9.87;;;5.20;;
6832;SDS011;3454;42.654;23.378;2023-04-29T07:40:03;6.70;;;4.77;;
6832;SDS011;3454;42.654;23.378;2023-04-29T07:42:28;9.23;;;5.53;;
6832;SDS011;3454;42.654;23.378;2023-04-29T07:44:54;10.17;;;5.47;;
6832;SDS011;3454;42.654;23.378;2023-04-29T07:47:19;7.37;;;4.37;;
6832;SDS011;3454;42.654;23.378;2023-04-29T07:49:45;5.30;;;4.70;;
6832;SDS011;3454;42.654;23.378;2023-04-29T07:52:10;7.50;;;5.18;;
6832;SDS011;3454;42.654;23.378;2023-04-29T07:54:36;8.73;;;5.60;;
6832;SDS011;3454;42.654;23.378;2023-04-29T07:57:02;9.97;;;5.90;;
6832;SDS011;3454;42.654;23.378;2023-04-29T07:59:28;5.73;;;4.57;;
6832;SDS011;3454;42.654;23.378;2023-04-29T08:01:54;9.00;;;4.97;;
6832;SDS011;3454;42.654;23.378;2023-04-29T08:04:20;8.35;;;4.78;;
6832;SDS011;3454;42.654;23.378;2023-04-29T08:06:45;7.22;;;4.10;;
6832;SDS011;3454;42.654;23.378;2023-04-29T08:09:11;11.50;;;5.38;;
6832;SDS011;3454;42.654;23.378;2023-04-29T08:11:36;8.57;;;5.07;;
6832;SDS011;3454;42.654;23.378;2023-04-29T08:14:03;5.03;;;3.83;;
6832;SDS011;3454;42.654;23.378;2023-04-29T08:16:29;7.70;;;4.22;;
6832;SDS011;3454;42.654;23.378;2023-04-29T08:18:55;4.53;;;3.78;;
6832;SDS011;3454;42.654;23.378;2023-04-29T08:21:21;7.00;;;4.03;;
6832;SDS011;3454;42.654;23.378;2023-04-29T08:23:47;5.17;;;4.03;;
6832;SDS011;3454;42.654;23.378;2023-04-29T08:26:13;4.68;;;3.28;;
6832;SDS011;3454;42.654;23.378;2023-04-29T08:28:38;6.18;;;3.70;;
6832;SDS011;3454;42.654;23.378;2023-04-29T08:31:04;3.00;;;2.70;;
6832;SDS011;3454;42.654;23.378;2023-04-29T08:33:34;4.20;;;3.15;;
6832;SDS011;3454;42.654;23.378;2023-04-29T08:36:00;6.22;;;3.88;;
6832;SDS011;3454;42.654;23.378;2023-04-29T08:38:27;6.72;;;3.42;;
6832;SDS011;3454;42.654;23.378;2023-04-29T08:40:53;5.90;;;4.15;;
6832;SDS011;3454;42.654;23.378;2023-04-29T08:43:20;7.82;;;3.22;;
6832;SDS011;3454;42.654;23.378;2023-04-29T08:45:50;8.40;;;3.42;;
6832;SDS011;3454;42.654;23.378;2023-04-29T08:48:16;6.55;;;3.67;;
6832;SDS011;3454;42.654;23.378;2023-04-29T08:50:42;5.22;;;3.03;;
6832;SDS011;3454;42.654;23.378;2023-04-29T08:53:09;3.88;;;2.65;;
6832;SDS011;3454;42.654;23.378;2023-04-29T08:55:36;8.10;;;2.75;;
6832;SDS011;3454;42.654;23.378;2023-04-29T08:58:05;5.00;;;2.75;;
6832;SDS011;3454;42.654;23.378;2023-04-29T09:00:32;4.95;;;2.40;;
6832;SDS011;3454;42.654;23.378;2023-04-29T09:02:59;6.43;;;3.40;;
6832;SDS011;3454;42.654;23.378;2023-04-29T09:05:28;8.90;;;6.05;;
6832;SDS011;3454;42.654;23.378;2023-04-29T09:07:55;5.05;;;3.08;;
6832;SDS011;3454;42.654;23.378;2023-04-29T09:10:27;12.77;;;5.82;;
6832;SDS011;3454;42.654;23.378;2023-04-29T09:12:54;7.40;;;3.05;;
6832;SDS011;3454;42.654;23.378;2023-04-29T09:15:34;4.43;;;3.42;;
6832;SDS011;3454;42.654;23.378;2023-04-29T09:21:34;7.32;;;3.10;;
6832;SDS011;3454;42.654;23.378;2023-04-29T09:24:00;5.60;;;2.85;;
6832;SDS011;3454;42.654;23.378;2023-04-29T09:26:27;5.15;;;2.45;;
6832;SDS011;3454;42.654;23.378;2023-04-29T09:31:30;6.78;;;2.80;;
6832;SDS011;3454;42.654;23.378;2023-04-29T09:33:56;3.28;;;2.53;;
6832;SDS011;3454;42.654;23.378;2023-04-29T09:39:01;5.85;;;3.53;;
6832;SDS011;3454;42.654;23.378;2023-04-29T09:41:29;4.55;;;2.80;;
6832;SDS011;3454;42.654;23.378;2023-04-29T09:44:01;5.95;;;2.78;;
6832;SDS011;3454;42.654;23.378;2023-04-29T09:46:33;8.68;;;4.80;;
6832;SDS011;3454;42.654;23.378;2023-04-29T09:49:04;3.10;;;2.50;;
6832;SDS011;3454;42.654;23.378;2023-04-29T09:51:51;8.20;;;3.65;;
6832;SDS011;3454;42.654;23.378;2023-04-29T09:54:21;7.57;;;4.00;;
6832;SDS011;3454;42.654;23.378;2023-04-29T09:56:49;4.85;;;2.63;;
6832;SDS011;3454;42.654;23.378;2023-04-29T09:59:17;6.32;;;3.15;;
6832;SDS011;3454;42.654;23.378;2023-04-29T10:01:49;5.57;;;2.92;;
6832;SDS011;3454;42.654;23.378;2023-04-29T10:04:20;4.28;;;2.90;;
6832;SDS011;3454;42.654;23.378;2023-04-29T10:06:50;5.15;;;3.17;;
6832;SDS011;3454;42.654;23.378;2023-04-29T10:09:18;6.93;;;3.13;;
6832;SDS011;3454;42.654;23.378;2023-04-29T10:11:46;7.35;;;3.80;;
6832;SDS011;3454;42.654;23.378;2023-04-29T10:14:16;5.93;;;3.63;;
6832;SDS011;3454;42.654;23.378;2023-04-29T10:19:39;7.63;;;4.90;;
6832;SDS011;3454;42.654;23.378;2023-04-29T10:22:13;7.65;;;3.90;;
6832;SDS011;3454;42.654;23.378;2023-04-29T10:24:45;7.97;;;5.07;;
6832;SDS011;3454;42.654;23.378;2023-04-29T10:27:13;8.57;;;4.95;;
6832;SDS011;3454;42.654;23.378;2023-04-29T10:29:41;5.32;;;4.50;;
6832;SDS011;3454;42.654;23.378;2023-04-29T10:32:07;4.72;;;4.03;;
6832;SDS011;3454;42.654;23.378;2023-04-29T10:34:35;10.60;;;3.75;;
6832;SDS011;3454;42.654;23.378;2023-04-29T10:37:04;6.30;;;4.25;;
6832;SDS011;3454;42.654;23.378;2023-04-29T10:39:41;7.15;;;4.68;;
6832;SDS011;3454;42.654;23.378;2023-04-29T10:43:14;7.40;;;4.53;;
6832;SDS011;3454;42.654;23.378;2023-04-29T10:53:15;5.70;;;3.70;;
6832;SDS011;3454;42.654;23.378;2023-04-29T10:55:45;12.13;;;4.40;;
6832;SDS011;3454;42.654;23.378;2023-04-29T11:01:01;11.50;;;4.68;;
6832;SDS011;3454;42.654;23.378;2023-04-29T11:06:13;6.30;;;3.67;;
6832;SDS011;3454;42.654;23.378;2023-04-29T11:08:39;4.82;;;3.72;;
6832;SDS011;3454;42.654;23.378;2023-04-29T11:11:06;9.15;;;3.40;;
6832;SDS011;3454;42.654;23.378;2023-04-29T11:13:32;7.00;;;3.50;;
6832;SDS011;3454;42.654;23.378;2023-04-29T11:18:29;6.82;;;3.30;;
6832;SDS011;3454;42.654;23.378;2023-04-29T11:23:30;7.00;;;2.15;;
6832;SDS011;3454;42.654;23.378;2023-04-29T11:26:09;5.53;;;2.63;;
6832;SDS011;3454;42.654;23.378;2023-04-29T11:28:35;5.95;;;2.85;;
6832;SDS011;3454;42.654;23.378;2023-04-29T11:31:00;4.78;;;2.28;;
6832;SDS011;3454;42.654;23.378;2023-04-29T11:33:30;3.55;;;2.55;;
6832;SDS011;3454;42.654;23.378;2023-04-29T11:35:56;4.85;;;2.40;;
6832;SDS011;3454;42.654;23.378;2023-04-29T11:38:25;4.07;;;2.22;;
6832;SDS011;3454;42.654;23.378;2023-04-29T11:40:57;6.30;;;2.53;;
6832;SDS011;3454;42.654;23.378;2023-04-29T11:43:24;2.67;;;1.95;;
6832;SDS011;3454;42.654;23.378;2023-04-29T11:45:50;3.53;;;1.80;;
6832;SDS011;3454;42.654;23.378;2023-04-29T11:48:25;3.95;;;2.20;;
6832;SDS011;3454;42.654;23.378;2023-04-29T11:50:56;3.55;;;1.70;;
6832;SDS011;3454;42.654;23.378;2023-04-29T11:53:24;3.88;;;1.85;;
6832;SDS011;3454;42.654;23.378;2023-04-29T11:55:52;4.82;;;1.70;;
6832;SDS011;3454;42.654;23.378;2023-04-29T11:58:19;5.07;;;1.80;;
6832;SDS011;3454;42.654;23.378;2023-04-29T12:00:48;6.05;;;2.20;;
6832;SDS011;3454;42.654;23.378;2023-04-29T12:03:15;3.38;;;2.28;;
6832;SDS011;3454;42.654;23.378;2023-04-29T12:05:46;2.63;;;1.98;;
6832;SDS011;3454;42.654;23.378;2023-04-29T12:08:13;2.42;;;1.70;;
6832;SDS011;3454;42.654;23.378;2023-04-29T12:10:39;5.05;;;1.80;;
6832;SDS011;3454;42.654;23.378;2023-04-29T12:13:05;2.67;;;1.70;;
6832;SDS011;3454;42.654;23.378;2023-04-29T12:15:30;4.57;;;1.95;;
6832;SDS011;3454;42.654;23.378;2023-04-29T12:17:56;7.22;;;1.92;;
6832;SDS011;3454;42.654;23.378;2023-04-29T12:20:30;3.78;;;2.00;;
6832;SDS011;3454;42.654;23.378;2023-04-29T12:22:56;2.72;;;1.90;;
6832;SDS011;3454;42.654;23.378;2023-04-29T12:25:36;4.20;;;2.15;;
6832;SDS011;3454;42.654;23.378;2023-04-29T12:28:01;4.07;;;2.00;;
6832;SDS011;3454;42.654;23.378;2023-04-29T12:30:28;3.15;;;1.65;;
6832;SDS011;3454;42.654;23.378;2023-04-29T12:32:53;2.15;;;1.38;;
6832;SDS011;3454;42.654;23.378;2023-04-29T12:35:25;2.90;;;1.48;;
6832;SDS011;3454;42.654;23.378;2023-04-29T12:37:51;2.75;;;1.85;;
6832;SDS011;3454;42.654;23.378;2023-04-29T12:40:17;3.25;;;1.80;;
6832;SDS011;3454;42.654;23.378;2023-04-29T12:42:44;5.60;;;1.98;;
6832;SDS011;3454;42.654;23.378;2023-04-29T12:45:26;2.97;;;1.73;;
6832;SDS011;3454;42.654;23.378;2023-04-29T12:47:56;5.47;;;1.92;;
6832;SDS011;3454;42.654;23.378;2023-04-29T12:50:32;2.33;;;1.50;;
6832;SDS011;3454;42.654;23.378;2023-04-29T12:52:59;6.38;;;1.75;;
6832;SDS011;3454;42.654;23.378;2023-04-29T12:55:25;4.05;;;1.80;;
6832;SDS011;3454;42.654;23.378;2023-04-29T12:57:50;6.68;;;1.85;;
6832;SDS011;3454;42.654;23.378;2023-04-29T13:00:16;3.33;;;1.90;;
6832;SDS011;3454;42.654;23.378;2023-04-29T13:02:44;4.88;;;1.80;;
6832;SDS011;3454;42.654;23.378;2023-04-29T13:05:11;2.10;;;1.20;;
6832;SDS011;3454;42.654;23.378;2023-04-29T13:07:36;2.92;;;1.75;;
6832;SDS011;3454;42.654;23.378;2023-04-29T13:10:03;2.78;;;1.40;;
6832;SDS011;3454;42.654;23.378;2023-04-29T13:12:30;3.88;;;1.73;;
6832;SDS011;3454;42.654;23.378;2023-04-29T13:14:56;2.88;;;1.98;;
6832;SDS011;3454;42.654;23.378;2023-04-29T13:17:22;1.95;;;1.75;;
6832;SDS011;3454;42.654;23.378;2023-04-29T13:19:47;2.75;;;1.77;;
6832;SDS011;3454;42.654;23.378;2023-04-29T13:22:14;1.30;;;1.20;;
6832;SDS011;3454;42.654;23.378;2023-04-29T13:24:40;3.28;;;1.80;;
6832;SDS011;3454;42.654;23.378;2023-04-29T13:27:05;2.95;;;2.17;;
6832;SDS011;3454;42.654;23.378;2023-04-29T13:29:31;3.72;;;1.60;;
6832;SDS011;3454;42.654;23.378;2023-04-29T13:31:56;2.10;;;1.48;;
6832;SDS011;3454;42.654;23.378;2023-04-29T13:34:21;3.97;;;1.50;;
6832;SDS011;3454;42.654;23.378;2023-04-29T13:36:47;2.53;;;1.63;;
6832;SDS011;3454;42.654;23.378;2023-04-29T13:39:13;3.97;;;1.60;;
6832;SDS011;3454;42.654;23.378;2023-04-29T13:41:38;3.15;;;1.63;;
6832;SDS011;3454;42.654;23.378;2023-04-29T13:44:04;4.05;;;1.92;;
6832;SDS011;3454;42.654;23.378;2023-04-29T13:46:29;2.03;;;1.67;;
6832;SDS011;3454;42.654;23.378;2023-04-29T13:48:56;2.33;;;1.40;;
6832;SDS011;3454;42.654;23.378;2023-04-29T13:51:22;1.73;;;1.50;;
6832;SDS011;3454;42.654;23.378;2023-04-29T13:53:47;1.40;;;1.30;;
6832;SDS011;3454;42.654;23.378;2023-04-29T13:56:13;2.53;;;1.50;;
6832;SDS011;3454;42.654;23.378;2023-04-29T13:58:40;1.95;;;1.25;;
6832;SDS011;3454;42.654;23.378;2023-04-29T14:01:06;2.13;;;1.50;;
6832;SDS011;3454;42.654;23.378;2023-04-29T14:03:31;2.08;;;1.50;;
6832;SDS011;3454;42.654;23.378;2023-04-29T14:05:57;1.60;;;1.25;;
6832;SDS011;3454;42.654;23.378;2023-04-29T14:08:22;2.85;;;1.60;;
6832;SDS011;3454;42.654;23.378;2023-04-29T14:10:48;3.35;;;1.92;;
6832;SDS011;3454;42.654;23.378;2023-04-29T14:13:13;1.92;;;1.65;;
6832;SDS011;3454;42.654;23.378;2023-04-29T14:15:38;5.10;;;2.08;;
6832;SDS011;3454;42.654;23.378;2023-04-29T14:18:05;1.70;;;1.60;;
6832;SDS011;3454;42.654;23.378;2023-04-29T14:20:32;3.90;;;1.63;;
6832;SDS011;3454;42.654;23.378;2023-04-29T14:22:57;1.95;;;1.60;;
6832;SDS011;3454;42.654;23.378;2023-04-29T14:25:23;3.38;;;1.45;;
6832;SDS011;3454;42.654;23.378;2023-04-29T14:27:48;3.33;;;1.60;;
6832;SDS011;3454;42.654;23.378;2023-04-29T14:30:13;4.28;;;1.50;;
6832;SDS011;3454;42.654;23.378;2023-04-29T14:32:39;5.35;;;2.10;;
6832;SDS011;3454;42.654;23.378;2023-04-29T14:35:04;2.33;;;1.63;;
6832;SDS011;3454;42.654;23.378;2023-04-29T14:37:30;3.20;;;1.75;;
6832;SDS011;3454;42.654;23.378;2023-04-29T14:39:56;2.35;;;1.98;;
6832;SDS011;3454;42.654;23.378;2023-04-29T14:42:21;1.98;;;1.70;;
6832;SDS011;3454;42.654;23.378;2023-04-29T14:44:46;1.95;;;1.70;;
6832;SDS011;3454;42.654;23.378;2023-04-29T14:47:12;1.75;;;1.40;;
6832;SDS011;3454;42.654;23.378;2023-04-29T14:49:38;1.92;;;1.63;;
6832;SDS011;3454;42.654;23.378;2023-04-29T14:52:03;2.30;;;1.73;;
6832;SDS011;3454;42.654;23.378;2023-04-29T14:54:29;3.70;;;2.00;;
6832;SDS011;3454;42.654;23.378;2023-04-29T14:56:55;2.53;;;2.00;;
6832;SDS011;3454;42.654;23.378;2023-04-29T14:59:21;4.25;;;2.13;;
6832;SDS011;3454;42.654;23.378;2023-04-29T15:01:46;3.00;;;1.60;;
6832;SDS011;3454;42.654;23.378;2023-04-29T15:04:12;2.55;;;1.90;;
6832;SDS011;3454;42.654;23.378;2023-04-29T15:06:38;4.15;;;1.60;;
6832;SDS011;3454;42.654;23.378;2023-04-29T15:09:04;1.80;;;1.67;;
6832;SDS011;3454;42.654;23.378;2023-04-29T15:11:30;3.10;;;2.20;;
6832;SDS011;3454;42.654;23.378;2023-04-29T15:13:57;3.75;;;2.35;;
6832;SDS011;3454;42.654;23.378;2023-04-29T15:16:22;4.03;;;2.13;;
6832;SDS011;3454;42.654;23.378;2023-04-29T15:18:48;5.32;;;2.20;;
6832;SDS011;3454;42.654;23.378;2023-04-29T15:21:13;5.93;;;2.30;;
6832;SDS011;3454;42.654;23.378;2023-04-29T15:23:39;3.38;;;2.10;;
6832;SDS011;3454;42.654;23.378;2023-04-29T15:26:04;2.28;;;1.80;;
6832;SDS011;3454;42.654;23.378;2023-04-29T15:28:31;5.53;;;2.60;;
6832;SDS011;3454;42.654;23.378;2023-04-29T15:30:56;3.92;;;2.60;;
6832;SDS011;3454;42.654;23.378;2023-04-29T15:33:23;3.28;;;2.53;;
6832;SDS011;3454;42.654;23.378;2023-04-29T15:35:49;4.78;;;2.22;;
6832;SDS011;3454;42.654;23.378;2023-04-29T15:38:15;6.13;;;2.35;;
6832;SDS011;3454;42.654;23.378;2023-04-29T15:40:40;3.72;;;2.13;;
6832;SDS011;3454;42.654;23.378;2023-04-29T15:43:06;3.90;;;2.20;;
6832;SDS011;3454;42.654;23.378;2023-04-29T15:45:31;3.65;;;1.98;;
6832;SDS011;3454;42.654;23.378;2023-04-29T15:47:57;5.63;;;2.63;;